Terminal Aerodrome Forecast
Issued by NWS Corpus Christi, TX

Home | Current Version | Previous Version | Text Only | Print | Product List | Glossary On
Versions: 1 2 3 4 5 6 7 8 9 10 11 12 13 14 15 16 17
000
FTUS44 KCRP 190700 AAA
TAFVCT
TAF AMD
KVCT 190746Z 1908/2006 VRB04KT 3SM BR VCSH OVC003
      TEMPO 1908/1910 2SM SHRA BR OVC005
     FM191000 09006KT 4SM -SHRA BR OVC010
      TEMPO 1910/1914 1SM RA BR OVC006
     FM191400 36012KT 3SM -SHRA BR VCTS OVC010CB
      TEMPO 1914/1918 1SM SHRA OVC006
     FM191800 01012KT P6SM OVC012=

USA.gov is the U.S. government's official web portal to all federal, state and local government web resources and services.